createdAt,value
2017-02-09T00:00:43.993Z,1022.39
2017-02-09T00:01:53.855Z,1022.35
2017-02-09T00:03:03.703Z,1022.38
2017-02-09T00:04:14.342Z,1022.43
2017-02-09T00:05:24.974Z,1022.41
2017-02-09T00:06:35.592Z,1022.37
2017-02-09T00:07:45.454Z,1022.4
2017-02-09T00:08:55.704Z,1022.39
2017-02-09T00:10:05.953Z,1022.36
2017-02-09T00:11:16.194Z,1022.34
2017-02-09T00:12:27.178Z,1022.36
2017-02-09T00:13:37.036Z,1022.36
2017-02-09T00:14:47.667Z,1022.38
2017-02-09T00:15:58.306Z,1022.38
2017-02-09T00:17:08.949Z,1022.39
2017-02-09T00:18:19.791Z,1022.38
2017-02-09T00:19:30.417Z,1022.43
2017-02-09T00:20:40.271Z,1022.42
2017-02-09T00:21:50.527Z,1022.42
2017-02-09T00:23:00.379Z,1022.44
2017-02-09T00:24:10.928Z,1022.48
2017-02-09T00:25:20.788Z,1022.47
2017-02-09T00:26:31.413Z,1022.49
2017-02-09T00:27:41.678Z,1022.46
2017-02-09T00:28:51.924Z,1022.47
2017-02-09T00:30:02.706Z,1022.48
2017-02-09T00:31:12.566Z,1022.46
2017-02-09T00:32:23.195Z,1022.44
2017-02-09T00:33:33.839Z,1022.44
2017-02-09T00:34:44.467Z,1022.41
2017-02-09T00:35:55.348Z,1022.42
2017-02-09T00:37:05.592Z,1022.43
2017-02-09T00:38:16.237Z,1022.43
2017-02-09T00:39:26.859Z,1022.42
2017-02-09T00:40:37.500Z,1022.48
2017-02-09T00:41:48.240Z,1022.52
2017-02-09T00:42:58.488Z,1022.54
2017-02-09T00:44:08.733Z,1022.56
2017-02-09T00:45:19.374Z,1022.55
2017-02-09T00:46:30.014Z,1022.55
2017-02-09T00:47:40.573Z,1022.52
2017-02-09T00:48:51.204Z,1022.56
2017-02-09T00:50:01.063Z,1022.54
2017-02-09T00:51:10.523Z,1022.52
2017-02-09T00:52:21.151Z,1022.47
2017-02-09T00:53:32.082Z,1022.5
2017-02-09T00:54:42.710Z,1022.49
2017-02-09T00:55:53.346Z,1022.45
2017-02-09T00:57:03.619Z,1022.48
2017-02-09T00:58:13.866Z,1022.48
2017-02-09T00:59:24.263Z,1022.52
2017-02-09T01:00:34.913Z,1022.51
2017-02-09T01:01:45.562Z,1022.53
2017-02-09T01:02:55.417Z,1022.49
2017-02-09T01:04:05.656Z,1022.49
2017-02-09T01:05:16.547Z,1022.45
2017-02-09T01:06:27.177Z,1022.47
2017-02-09T01:07:37.409Z,1022.47
2017-02-09T01:08:47.651Z,1022.49
2017-02-09T01:09:57.911Z,1022.49
2017-02-09T01:11:08.018Z,1022.49
2017-02-09T01:12:18.263Z,1022.51
2017-02-09T01:13:28.512Z,1022.53
2017-02-09T01:14:38.023Z,1022.51
2017-02-09T01:15:47.479Z,1022.5
2017-02-09T01:16:57.878Z,1022.51
2017-02-09T01:18:08.513Z,1022.49
2017-02-09T01:19:18.791Z,1022.52
2017-02-09T01:20:29.028Z,1022.55
2017-02-09T01:21:39.658Z,1022.56
2017-02-09T01:22:50.550Z,1022.57
2017-02-09T01:24:00.405Z,1022.57
2017-02-09T01:25:10.259Z,1022.59
2017-02-09T01:26:20.889Z,1022.57
2017-02-09T01:27:30.738Z,1022.6
2017-02-09T01:28:41.714Z,1022.56
2017-02-09T01:29:52.363Z,1022.61
2017-02-09T01:31:02.613Z,1022.56
2017-02-09T01:32:13.260Z,1022.58
2017-02-09T01:33:23.887Z,1022.56
2017-02-09T01:34:34.615Z,1022.58
2017-02-09T01:35:44.848Z,1022.59
2017-02-09T01:36:55.095Z,1022.58
2017-02-09T01:38:05.740Z,1022.58
2017-02-09T01:39:16.388Z,1022.57
2017-02-09T01:40:27.355Z,1022.59
2017-02-09T01:41:37.507Z,1022.58
2017-02-09T01:42:48.138Z,1022.59
2017-02-09T01:43:57.997Z,1022.6
2017-02-09T01:45:08.633Z,1022.59
2017-02-09T01:46:19.232Z,1022.58
2017-02-09T01:47:29.471Z,1022.57
2017-02-09T01:48:39.713Z,1022.57
2017-02-09T01:49:50.347Z,1022.59
2017-02-09T01:51:01.012Z,1022.57
2017-02-09T01:52:11.122Z,1022.56
2017-02-09T01:53:21.768Z,1022.57
2017-02-09T01:54:32.002Z,1022.54
2017-02-09T01:55:42.237Z,1022.54
2017-02-09T01:56:52.100Z,1022.53
2017-02-09T01:58:02.687Z,1022.54
2017-02-09T01:59:13.336Z,1022.55
2017-02-09T02:00:23.966Z,1022.53
2017-02-09T02:01:34.611Z,1022.56
2017-02-09T02:02:45.270Z,1022.56
2017-02-09T02:03:56.156Z,1022.55
2017-02-09T02:05:06.397Z,1022.55
2017-02-09T02:06:16.638Z,1022.52
2017-02-09T02:07:27.268Z,1022.55
2017-02-09T02:08:37.898Z,1022.53
2017-02-09T02:09:48.787Z,1022.55
2017-02-09T02:10:59.423Z,1022.55
2017-02-09T02:12:10.061Z,1022.55
2017-02-09T02:13:20.308Z,1022.54
2017-02-09T02:14:30.548Z,1022.52
2017-02-09T02:15:41.481Z,1022.57
2017-02-09T02:16:51.328Z,1022.56
2017-02-09T02:18:01.953Z,1022.57
2017-02-09T02:19:12.196Z,1022.61
2017-02-09T02:20:22.831Z,1022.56
2017-02-09T02:21:33.714Z,1022.57
2017-02-09T02:22:43.949Z,1022.58
2017-02-09T02:23:54.583Z,1022.58
2017-02-09T02:25:05.215Z,1022.57
2017-02-09T02:26:15.841Z,1022.58
2017-02-09T02:27:26.240Z,1022.61
2017-02-09T02:28:36.473Z,1022.61
2017-02-09T02:29:46.733Z,1022.61
2017-02-09T02:30:56.975Z,1022.62
2017-02-09T02:32:07.227Z,1022.6
2017-02-09T02:33:17.999Z,1022.66
2017-02-09T02:34:28.251Z,1022.63
2017-02-09T02:35:38.483Z,1022.63
2017-02-09T02:36:49.107Z,1022.63
2017-02-09T02:37:59.352Z,1022.68
2017-02-09T02:39:10.223Z,1022.67
2017-02-09T02:40:20.477Z,1022.65
2017-02-09T02:41:30.732Z,1022.64
2017-02-09T02:42:40.986Z,1022.61
2017-02-09T02:43:51.227Z,1022.57
2017-02-09T02:45:02.157Z,1022.56
2017-02-09T02:46:12.393Z,1022.54
2017-02-09T02:47:22.643Z,1022.55
2017-02-09T02:48:33.333Z,1022.58
2017-02-09T02:49:43.181Z,1022.6
2017-02-09T02:50:53.575Z,1022.55
2017-02-09T02:52:03.832Z,1022.56
2017-02-09T02:53:12.897Z,1022.54
2017-02-09T02:54:23.143Z,1022.57
2017-02-09T02:55:33.397Z,1022.58
2017-02-09T02:56:44.119Z,1022.58
2017-02-09T02:57:53.986Z,1022.58
2017-02-09T02:59:04.234Z,1022.57
2017-02-09T03:00:14.512Z,1022.62
2017-02-09T03:01:25.146Z,1022.64
2017-02-09T03:02:35.541Z,1022.69
2017-02-09T03:03:45.787Z,1022.63
2017-02-09T03:04:55.249Z,1022.61
2017-02-09T03:06:05.921Z,1022.59
2017-02-09T03:07:15.780Z,1022.56
2017-02-09T03:08:26.289Z,1022.57
2017-02-09T03:09:36.920Z,1022.6
2017-02-09T03:10:47.166Z,1022.59
2017-02-09T03:11:57.796Z,1022.62
2017-02-09T03:13:08.423Z,1022.59
2017-02-09T03:14:18.923Z,1022.6
2017-02-09T03:15:29.563Z,1022.58
2017-02-09T03:16:40.185Z,1022.57
2017-02-09T03:17:50.824Z,1022.54
2017-02-09T03:19:01.063Z,1022.57
2017-02-09T03:20:11.789Z,1022.55
2017-02-09T03:21:21.649Z,1022.53
2017-02-09T03:22:31.511Z,1022.53
2017-02-09T03:23:41.764Z,1022.52
2017-02-09T03:24:51.606Z,1022.59
2017-02-09T03:26:02.384Z,1022.57
2017-02-09T03:27:12.627Z,1022.55
2017-02-09T03:28:22.878Z,1022.59
2017-02-09T03:29:32.776Z,1022.55
2017-02-09T03:30:43.400Z,1022.57
2017-02-09T03:31:53.907Z,1022.55
2017-02-09T03:33:04.541Z,1022.56
2017-02-09T03:34:14.789Z,1022.57
2017-02-09T03:35:25.028Z,1022.59
2017-02-09T03:36:35.712Z,1022.54
2017-02-09T03:37:45.937Z,1022.57
2017-02-09T03:38:56.186Z,1022.54
2017-02-09T03:40:06.824Z,1022.56
2017-02-09T03:41:16.687Z,1022.54
2017-02-09T03:42:26.928Z,1022.61
2017-02-09T03:43:37.882Z,1022.57
2017-02-09T03:44:48.136Z,1022.62
2017-02-09T03:45:58.774Z,1022.6
2017-02-09T03:47:09.059Z,1022.6
2017-02-09T03:48:18.956Z,1022.62
2017-02-09T03:49:29.079Z,1022.64
2017-02-09T03:50:39.324Z,1022.54
2017-02-09T03:51:49.575Z,1022.58
2017-02-09T03:52:59.835Z,1022.58
2017-02-09T03:54:10.072Z,1022.62
2017-02-09T03:55:20.807Z,1022.63
2017-02-09T03:56:31.098Z,1022.63
2017-02-09T03:57:41.734Z,1022.62
2017-02-09T03:58:52.004Z,1022.62
2017-02-09T04:00:02.242Z,1022.63
2017-02-09T04:01:12.742Z,1022.65
2017-02-09T04:02:22.602Z,1022.65
2017-02-09T04:03:32.851Z,1022.61
2017-02-09T04:04:43.101Z,1022.68
2017-02-09T04:05:53.387Z,1022.65
2017-02-09T04:07:03.987Z,1022.66
2017-02-09T04:08:13.843Z,1022.67
2017-02-09T04:09:24.485Z,1022.65
2017-02-09T04:10:34.727Z,1022.64
2017-02-09T04:11:45.370Z,1022.62
2017-02-09T04:12:56.147Z,1022.62
2017-02-09T04:14:05.996Z,1022.64
2017-02-09T04:15:16.628Z,1022.68
2017-02-09T04:16:26.873Z,1022.67
2017-02-09T04:17:37.501Z,1022.64
2017-02-09T04:18:47.311Z,1022.65
2017-02-09T04:19:57.468Z,1022.64
2017-02-09T04:21:08.098Z,1022.66
2017-02-09T04:22:18.728Z,1022.71
2017-02-09T04:23:28.586Z,1022.7
2017-02-09T04:24:39.560Z,1022.71
2017-02-09T04:25:49.794Z,1022.71
2017-02-09T04:26:59.646Z,1022.76
2017-02-09T04:28:10.297Z,1022.74
2017-02-09T04:29:20.141Z,1022.76
2017-02-09T04:30:30.747Z,1022.77
2017-02-09T04:31:40.606Z,1022.76
2017-02-09T04:32:50.848Z,1022.74
2017-02-09T04:34:01.107Z,1022.78
2017-02-09T04:35:11.345Z,1022.76
2017-02-09T04:36:21.530Z,1022.75
2017-02-09T04:37:32.155Z,1022.71
2017-02-09T04:38:42.784Z,1022.72
2017-02-09T04:39:52.640Z,1022.73
2017-02-09T04:41:03.278Z,1022.71
2017-02-09T04:42:12.909Z,1022.72
2017-02-09T04:43:23.172Z,1022.74
2017-02-09T04:44:33.809Z,1022.73
2017-02-09T04:45:44.446Z,1022.72
2017-02-09T04:46:55.087Z,1022.71
2017-02-09T04:48:05.681Z,1022.76
2017-02-09T04:49:15.928Z,1022.75
2017-02-09T04:50:26.177Z,1022.77
2017-02-09T04:51:36.423Z,1022.75
2017-02-09T04:52:46.286Z,1022.77
2017-02-09T04:53:56.286Z,1022.76
2017-02-09T04:55:06.129Z,1022.76
2017-02-09T04:56:16.763Z,1022.76
2017-02-09T04:57:26.998Z,1022.71
2017-02-09T04:58:37.530Z,1022.75
2017-02-09T04:59:48.198Z,1022.78
2017-02-09T05:00:58.839Z,1022.74
2017-02-09T05:02:08.690Z,1022.78
2017-02-09T05:03:18.939Z,1022.75
2017-02-09T05:04:28.805Z,1022.79
2017-02-09T05:05:39.441Z,1022.75
2017-02-09T05:06:49.687Z,1022.75
2017-02-09T05:08:00.361Z,1022.77
2017-02-09T05:09:11.017Z,1022.79
2017-02-09T05:10:21.270Z,1022.81
2017-02-09T05:11:31.289Z,1022.77
2017-02-09T05:12:41.168Z,1022.8
2017-02-09T05:13:51.808Z,1022.81
2017-02-09T05:15:02.072Z,1022.84
2017-02-09T05:16:12.359Z,1022.84
2017-02-09T05:17:22.759Z,1022.81
2017-02-09T05:18:33.009Z,1022.81
2017-02-09T05:19:43.245Z,1022.82
2017-02-09T05:20:53.880Z,1022.81
2017-02-09T05:22:03.735Z,1022.82
2017-02-09T05:23:14.534Z,1022.84
2017-02-09T05:24:25.174Z,1022.83
2017-02-09T05:25:35.034Z,1022.88
2017-02-09T05:26:45.708Z,1022.86
2017-02-09T05:27:55.971Z,1022.83
2017-02-09T05:29:06.567Z,1022.82
2017-02-09T05:30:16.816Z,1022.81
2017-02-09T05:31:27.474Z,1022.77
2017-02-09T05:32:37.717Z,1022.78
2017-02-09T05:33:47.980Z,1022.77
2017-02-09T05:34:58.599Z,1022.76
2017-02-09T05:36:09.234Z,1022.74
2017-02-09T05:37:19.482Z,1022.74
2017-02-09T05:38:29.346Z,1022.75
2017-02-09T05:39:39.984Z,1022.77
2017-02-09T05:40:50.482Z,1022.76
2017-02-09T05:42:00.735Z,1022.77
2017-02-09T05:43:10.974Z,1022.77
2017-02-09T05:44:21.223Z,1022.73
2017-02-09T05:45:30.694Z,1022.75
2017-02-09T05:46:41.604Z,1022.76
2017-02-09T05:47:51.459Z,1022.81
2017-02-09T05:49:01.722Z,1022.81
2017-02-09T05:50:11.974Z,1022.79
2017-02-09T05:51:22.221Z,1022.77
2017-02-09T05:52:32.818Z,1022.77
2017-02-09T05:53:42.688Z,1022.74
2017-02-09T05:54:53.332Z,1022.77
2017-02-09T05:56:02.801Z,1022.79
2017-02-09T05:57:13.071Z,1022.8
2017-02-09T05:58:23.856Z,1022.8
2017-02-09T05:59:34.114Z,1022.84
2017-02-09T06:00:44.833Z,1022.81
2017-02-09T06:01:55.474Z,1022.79
2017-02-09T06:03:05.721Z,1022.76
2017-02-09T06:04:16.225Z,1022.77
2017-02-09T06:05:26.864Z,1022.75
2017-02-09T06:06:37.139Z,1022.79
2017-02-09T06:07:47.391Z,1022.77
2017-02-09T06:08:57.243Z,1022.82
2017-02-09T06:10:06.883Z,1022.83
2017-02-09T06:11:17.178Z,1022.83
2017-02-09T06:12:27.440Z,1022.86
2017-02-09T06:13:38.077Z,1022.81
2017-02-09T06:14:48.704Z,1022.86
2017-02-09T06:15:58.515Z,1022.87
2017-02-09T06:17:08.768Z,1022.92
2017-02-09T06:18:17.854Z,1022.96
2017-02-09T06:19:28.108Z,1022.97
2017-02-09T06:20:38.359Z,1022.96
2017-02-09T06:21:48.981Z,1022.95
2017-02-09T06:22:59.647Z,1022.92
2017-02-09T06:24:10.301Z,1022.97
2017-02-09T06:25:20.937Z,1022.93
2017-02-09T06:26:31.592Z,1022.98
2017-02-09T06:27:42.186Z,1022.95
2017-02-09T06:28:52.821Z,1022.95
2017-02-09T06:30:03.479Z,1022.97
2017-02-09T06:31:13.342Z,1022.92
2017-02-09T06:32:23.595Z,1022.95
2017-02-09T06:33:34.343Z,1022.97
2017-02-09T06:34:43.828Z,1022.99
2017-02-09T06:35:53.754Z,1022.95
2017-02-09T06:37:03.995Z,1022.93
2017-02-09T06:38:14.699Z,1022.93
2017-02-09T06:39:25.255Z,1022.94
2017-02-09T06:40:35.522Z,1022.97
2017-02-09T06:41:45.367Z,1022.97
2017-02-09T06:42:56.016Z,1022.93
2017-02-09T06:44:06.660Z,1023
2017-02-09T06:45:17.407Z,1022.96
2017-02-09T06:46:27.652Z,1022.97
2017-02-09T06:47:37.902Z,1022.98
2017-02-09T06:48:48.148Z,1022.97
2017-02-09T06:49:58.393Z,1022.96
2017-02-09T06:51:07.958Z,1022.98
2017-02-09T06:52:18.211Z,1022.94
2017-02-09T06:53:28.875Z,1022.98
2017-02-09T06:54:39.138Z,1023
2017-02-09T06:55:49.018Z,1023.02
2017-02-09T06:56:59.946Z,1023.08
2017-02-09T06:58:10.197Z,1023.06
2017-02-09T06:59:20.837Z,1023.09
2017-02-09T07:00:30.695Z,1023.09
2017-02-09T07:01:40.955Z,1023.12
2017-02-09T07:02:51.502Z,1023.08
2017-02-09T07:04:01.745Z,1023.08
2017-02-09T07:05:11.220Z,1023.09
2017-02-09T07:06:21.867Z,1023.04
2017-02-09T07:07:32.507Z,1023.07
2017-02-09T07:08:43.292Z,1023.04
2017-02-09T07:09:53.598Z,1023.11
2017-02-09T07:11:03.891Z,1023.08
2017-02-09T07:12:14.548Z,1023.09
2017-02-09T07:13:25.187Z,1023.11
2017-02-09T07:14:35.614Z,1023.16
2017-02-09T07:15:46.249Z,1023.15
2017-02-09T07:16:55.726Z,1023.16
2017-02-09T07:18:05.588Z,1023.13
2017-02-09T07:19:15.838Z,1023.1
2017-02-09T07:20:26.385Z,1023.07
2017-02-09T07:21:37.045Z,1023.07
2017-02-09T07:22:47.297Z,1023.08
2017-02-09T07:23:57.930Z,1023.1
2017-02-09T07:25:07.801Z,1023.08
2017-02-09T07:26:17.576Z,1023.07
2017-02-09T07:27:27.827Z,1023.06
2017-02-09T07:28:38.494Z,1023.03
2017-02-09T07:29:49.175Z,1023.03
2017-02-09T07:30:59.046Z,1022.99
2017-02-09T07:32:09.594Z,1022.98
2017-02-09T07:33:20.239Z,1022.99
2017-02-09T07:34:30.489Z,1022.96
2017-02-09T07:35:41.143Z,1023.02
2017-02-09T07:36:51.797Z,1023.05
2017-02-09T07:38:02.417Z,1022.99
2017-02-09T07:39:12.284Z,1023.03
2017-02-09T07:40:22.526Z,1023.01
2017-02-09T07:41:33.212Z,1022.99
2017-02-09T07:42:43.479Z,1023.01
2017-02-09T07:43:54.082Z,1023.02
2017-02-09T07:45:03.944Z,1023.01
2017-02-09T07:46:13.420Z,1023.03
2017-02-09T07:47:23.682Z,1023.04
2017-02-09T07:48:34.383Z,1023.04
2017-02-09T07:49:44.591Z,1023.06
2017-02-09T07:50:54.834Z,1023.09
2017-02-09T07:52:04.691Z,1023.05
2017-02-09T07:53:14.963Z,1023.06
2017-02-09T07:54:25.210Z,1023.05
2017-02-09T07:55:35.768Z,1023.11
2017-02-09T07:56:46.421Z,1023.08
2017-02-09T07:57:56.279Z,1023.1
2017-02-09T07:59:06.539Z,1023.07
2017-02-09T08:00:16.407Z,1023.12
2017-02-09T08:01:27.032Z,1023.09
2017-02-09T08:02:37.701Z,1023.11
2017-02-09T08:03:48.352Z,1023.13
2017-02-09T08:04:58.212Z,1023.09
2017-02-09T08:06:08.103Z,1023.09
2017-02-09T08:07:18.710Z,1023.08
2017-02-09T08:08:28.961Z,1023.09
2017-02-09T08:09:39.616Z,1023.07
2017-02-09T08:10:50.290Z,1023.05
2017-02-09T08:12:00.537Z,1023.02
2017-02-09T08:13:11.147Z,1023.01
2017-02-09T08:14:21.804Z,1023.01
2017-02-09T08:15:32.441Z,1023.01
2017-02-09T08:16:42.687Z,1022.97
2017-02-09T08:17:53.343Z,1022.96
2017-02-09T08:19:03.684Z,1022.98
2017-02-09T08:20:13.933Z,1022.98
2017-02-09T08:21:24.195Z,1022.99
2017-02-09T08:22:34.834Z,1022.96
2017-02-09T08:23:45.482Z,1023.04
2017-02-09T08:24:56.385Z,1023.02
2017-02-09T08:26:06.632Z,1023
2017-02-09T08:27:16.879Z,1022.96
2017-02-09T08:28:27.557Z,1023.01
2017-02-09T08:29:37.821Z,1022.96
2017-02-09T08:30:48.322Z,1023.01
2017-02-09T08:31:58.190Z,1023
2017-02-09T08:33:08.081Z,1022.98
2017-02-09T08:34:18.343Z,1022.97
2017-02-09T08:35:29.002Z,1022.96
2017-02-09T08:36:39.841Z,1022.94
2017-02-09T08:37:50.107Z,1022.98
2017-02-09T08:39:00.371Z,1022.9
2017-02-09T08:40:09.837Z,1022.95
2017-02-09T08:41:20.129Z,1022.95
2017-02-09T08:42:30.351Z,1022.94
2017-02-09T08:43:40.619Z,1022.89
2017-02-09T08:44:51.296Z,1022.94
2017-02-09T08:46:01.563Z,1022.92
2017-02-09T08:47:11.832Z,1022.93
2017-02-09T08:48:22.244Z,1022.91
2017-02-09T08:49:32.107Z,1022.88
2017-02-09T08:50:42.355Z,1022.89
2017-02-09T08:51:53.030Z,1022.85
2017-02-09T08:53:03.693Z,1022.86
2017-02-09T08:54:14.578Z,1022.83
2017-02-09T08:55:23.656Z,1022.84
2017-02-09T08:56:33.920Z,1022.82
2017-02-09T08:57:44.194Z,1022.8
2017-02-09T08:58:54.867Z,1022.77
2017-02-09T09:00:05.043Z,1022.83
2017-02-09T09:01:15.303Z,1022.82
2017-02-09T09:02:25.947Z,1022.78
2017-02-09T09:03:36.210Z,1022.83
2017-02-09T09:04:46.074Z,1022.82
2017-02-09T09:05:57.012Z,1022.81
2017-02-09T09:07:07.667Z,1022.79
2017-02-09T09:08:17.917Z,1022.81
2017-02-09T09:09:28.566Z,1022.82
2017-02-09T09:10:38.433Z,1022.82
2017-02-09T09:11:49.418Z,1022.79
2017-02-09T09:13:00.064Z,1022.86
2017-02-09T09:14:10.308Z,1022.86
2017-02-09T09:15:19.780Z,1022.84
2017-02-09T09:16:30.416Z,1022.84
2017-02-09T09:17:40.548Z,1022.84
2017-02-09T09:18:50.791Z,1022.84
2017-02-09T09:20:01.053Z,1022.81
2017-02-09T09:21:11.698Z,1022.77
2017-02-09T09:22:21.954Z,1022.77
2017-02-09T09:23:32.561Z,1022.81
2017-02-09T09:24:43.199Z,1022.78
2017-02-09T09:25:53.444Z,1022.79
2017-02-09T09:27:03.686Z,1022.8
2017-02-09T09:28:14.344Z,1022.8
2017-02-09T09:29:24.698Z,1022.79
2017-02-09T09:30:34.956Z,1022.75
2017-02-09T09:31:45.217Z,1022.78
2017-02-09T09:32:55.479Z,1022.79
2017-02-09T09:34:06.126Z,1022.78
2017-02-09T09:35:17.028Z,1022.81
2017-02-09T09:36:27.284Z,1022.82
2017-02-09T09:37:37.929Z,1022.8
2017-02-09T09:38:48.190Z,1022.81
2017-02-09T09:39:58.445Z,1022.79
2017-02-09T09:41:08.479Z,1022.82
2017-02-09T09:42:18.732Z,1022.82
2017-02-09T09:43:29.385Z,1022.82
2017-02-09T09:44:40.045Z,1022.84
2017-02-09T09:45:50.299Z,1022.83
2017-02-09T09:47:01.297Z,1022.81
2017-02-09T09:48:11.951Z,1022.86
2017-02-09T09:49:22.204Z,1022.85
2017-02-09T09:50:32.446Z,1022.9
2017-02-09T09:51:42.980Z,1022.9
2017-02-09T09:52:53.096Z,1022.88
2017-02-09T09:54:03.364Z,1022.87
2017-02-09T09:55:12.858Z,1022.87
2017-02-09T09:56:22.733Z,1022.85
2017-02-09T09:57:32.595Z,1022.84
2017-02-09T09:58:43.533Z,1022.87
2017-02-09T09:59:53.407Z,1022.8
2017-02-09T10:01:03.279Z,1022.83
2017-02-09T10:02:13.141Z,1022.82
2017-02-09T10:03:23.402Z,1022.84
2017-02-09T10:04:33.926Z,1022.84
2017-02-09T10:05:44.571Z,1022.85
2017-02-09T10:06:54.830Z,1022.86
2017-02-09T10:08:04.702Z,1022.84
2017-02-09T10:09:14.992Z,1022.83
2017-02-09T10:10:25.398Z,1022.87
2017-02-09T10:11:35.668Z,1022.86
2017-02-09T10:12:45.531Z,1022.83
2017-02-09T10:13:55.781Z,1022.86
2017-02-09T10:15:06.455Z,1022.86
2017-02-09T10:16:17.453Z,1022.89
2017-02-09T10:17:28.093Z,1022.89
2017-02-09T10:18:37.213Z,1022.89
2017-02-09T10:19:47.871Z,1022.87
2017-02-09T10:20:58.507Z,1022.86
2017-02-09T10:22:09.307Z,1022.86
2017-02-09T10:23:19.208Z,1022.84
2017-02-09T10:24:29.849Z,1022.84
2017-02-09T10:25:39.749Z,1022.85
2017-02-09T10:26:50.399Z,1022.84
2017-02-09T10:28:00.746Z,1022.85
2017-02-09T10:29:11.381Z,1022.84
2017-02-09T10:30:22.298Z,1022.83
2017-02-09T10:31:32.947Z,1022.81
2017-02-09T10:32:43.577Z,1022.77
2017-02-09T10:33:54.567Z,1022.8
2017-02-09T10:35:04.055Z,1022.76
2017-02-09T10:36:14.072Z,1022.77
2017-02-09T10:37:24.325Z,1022.75
2017-02-09T10:38:34.599Z,1022.78
2017-02-09T10:39:45.542Z,1022.74
2017-02-09T10:40:55.789Z,1022.71
2017-02-09T10:42:06.440Z,1022.7
2017-02-09T10:43:16.692Z,1022.74
2017-02-09T10:44:26.932Z,1022.76
2017-02-09T10:45:37.833Z,1022.73
2017-02-09T10:46:48.238Z,1022.75
2017-02-09T10:47:58.144Z,1022.73
2017-02-09T10:49:08.819Z,1022.7
2017-02-09T10:50:19.069Z,1022.7
2017-02-09T10:51:29.955Z,1022.71
2017-02-09T10:52:40.609Z,1022.71
2017-02-09T10:53:50.853Z,1022.7
2017-02-09T10:55:00.712Z,1022.67
2017-02-09T10:56:10.189Z,1022.68
2017-02-09T10:57:20.799Z,1022.7
2017-02-09T10:58:30.683Z,1022.73
2017-02-09T10:59:39.772Z,1022.75
2017-02-09T11:00:50.434Z,1022.77
2017-02-09T11:02:01.077Z,1022.76
2017-02-09T11:03:11.258Z,1022.72
2017-02-09T11:04:21.912Z,1022.76
2017-02-09T11:05:32.182Z,1022.71
2017-02-09T11:06:42.895Z,1022.71
2017-02-09T11:07:53.709Z,1022.69
2017-02-09T11:09:04.312Z,1022.69
2017-02-09T11:10:14.957Z,1022.69
2017-02-09T11:11:25.213Z,1022.62
2017-02-09T11:12:35.500Z,1022.62
2017-02-09T11:13:46.153Z,1022.61
2017-02-09T11:14:57.162Z,1022.62
2017-02-09T11:16:07.815Z,1022.61
2017-02-09T11:17:17.683Z,1022.61
2017-02-09T11:18:27.931Z,1022.58
2017-02-09T11:19:38.600Z,1022.59
2017-02-09T11:20:48.555Z,1022.58
2017-02-09T11:21:59.195Z,1022.59
2017-02-09T11:23:09.455Z,1022.59
2017-02-09T11:24:20.084Z,1022.56
2017-02-09T11:25:30.338Z,1022.55
2017-02-09T11:26:41.328Z,1022.5
2017-02-09T11:27:51.597Z,1022.48
2017-02-09T11:29:01.848Z,1022.43
2017-02-09T11:30:12.501Z,1022.44
2017-02-09T11:31:22.806Z,1022.39
2017-02-09T11:32:33.467Z,1022.34
2017-02-09T11:33:44.121Z,1022.34
2017-02-09T11:34:54.762Z,1022.31
2017-02-09T11:36:05.115Z,1022.31
2017-02-09T11:37:14.979Z,1022.3
2017-02-09T11:38:25.376Z,1022.29
2017-02-09T11:39:35.249Z,1022.25
2017-02-09T11:40:45.491Z,1022.3
2017-02-09T11:41:56.161Z,1022.24
2017-02-09T11:43:06.440Z,1022.22
2017-02-09T11:44:16.401Z,1022.22
2017-02-09T11:45:26.682Z,1022.24
2017-02-09T11:46:37.324Z,1022.15
2017-02-09T11:47:47.967Z,1022.12
2017-02-09T11:48:58.604Z,1022.15
2017-02-09T11:50:09.167Z,1022.12
2017-02-09T11:51:19.812Z,1022.13
2017-02-09T11:52:30.448Z,1022.12
2017-02-09T11:53:40.717Z,1022.12
2017-02-09T11:54:51.360Z,1022.09
2017-02-09T11:56:01.892Z,1022.09
2017-02-09T11:57:12.169Z,1022.06
2017-02-09T11:58:22.439Z,1022
2017-02-09T11:59:33.105Z,1021.98
2017-02-09T12:00:42.578Z,1021.97
2017-02-09T12:01:52.700Z,1021.91
2017-02-09T12:03:03.365Z,1021.97
2017-02-09T12:04:13.632Z,1021.98
2017-02-09T12:05:23.878Z,1021.95
2017-02-09T12:06:34.130Z,1021.91
2017-02-09T12:07:45.124Z,1021.95
2017-02-09T12:08:54.602Z,1021.96
2017-02-09T12:10:04.475Z,1021.96
2017-02-09T12:11:15.131Z,1021.91
2017-02-09T12:12:25.459Z,1021.94
2017-02-09T12:13:36.023Z,1021.9
2017-02-09T12:14:46.266Z,1021.91
2017-02-09T12:15:56.523Z,1021.86
2017-02-09T12:17:06.784Z,1021.82
2017-02-09T12:18:17.463Z,1021.77
2017-02-09T12:19:27.960Z,1021.79
2017-02-09T12:20:38.206Z,1021.79
2017-02-09T12:21:48.540Z,1021.8
2017-02-09T12:22:59.809Z,1021.76
2017-02-09T12:24:10.071Z,1021.74
2017-02-09T12:25:20.561Z,1021.68
2017-02-09T12:26:31.222Z,1021.71
2017-02-09T12:27:41.484Z,1021.68
2017-02-09T12:28:52.146Z,1021.67
2017-02-09T12:30:02.418Z,1021.66
2017-02-09T12:31:12.636Z,1021.66
2017-02-09T12:32:22.911Z,1021.63
2017-02-09T12:33:32.780Z,1021.63
2017-02-09T12:34:43.430Z,1021.62
2017-02-09T12:35:53.706Z,1021.59
2017-02-09T12:37:03.815Z,1021.58
2017-02-09T12:38:14.065Z,1021.54
2017-02-09T12:39:24.329Z,1021.52
2017-02-09T12:40:34.967Z,1021.48
2017-02-09T12:41:45.247Z,1021.53
2017-02-09T12:42:55.358Z,1021.46
2017-02-09T12:44:05.666Z,1021.44
2017-02-09T12:45:15.559Z,1021.45
2017-02-09T12:46:26.204Z,1021.45
2017-02-09T12:47:35.669Z,1021.42
2017-02-09T12:48:46.629Z,1021.42
2017-02-09T12:49:56.868Z,1021.42
2017-02-09T12:51:06.391Z,1021.36
2017-02-09T12:52:17.068Z,1021.36
2017-02-09T12:53:26.932Z,1021.35
2017-02-09T12:54:37.288Z,1021.35
2017-02-09T12:55:47.544Z,1021.33
2017-02-09T12:56:57.816Z,1021.32
2017-02-09T12:58:08.465Z,1021.35
2017-02-09T12:59:18.329Z,1021.33
2017-02-09T13:00:29.320Z,1021.31
2017-02-09T13:01:39.571Z,1021.33
2017-02-09T13:02:49.425Z,1021.3
2017-02-09T13:04:00.064Z,1021.29
2017-02-09T13:05:10.331Z,1021.29
2017-02-09T13:06:21.289Z,1021.27
2017-02-09T13:07:31.920Z,1021.25
2017-02-09T13:08:42.590Z,1021.16
2017-02-09T13:09:52.456Z,1021.13
2017-02-09T13:11:02.734Z,1021.12
2017-02-09T13:12:13.138Z,1021.16
2017-02-09T13:13:23.781Z,1021.11
2017-02-09T13:14:33.654Z,1021.09
2017-02-09T13:15:43.531Z,1021.05
2017-02-09T13:16:54.169Z,1021.03
2017-02-09T13:18:04.568Z,1021.02
2017-02-09T13:19:14.826Z,1021.04
2017-02-09T13:20:25.467Z,1021.01
2017-02-09T13:21:36.117Z,1021.03
2017-02-09T13:22:46.378Z,1021
2017-02-09T13:23:56.392Z,1021.02
2017-02-09T13:25:06.672Z,1020.94
2017-02-09T13:26:17.330Z,1020.95
2017-02-09T13:27:27.988Z,1020.98
2017-02-09T13:28:38.659Z,1020.95
2017-02-09T13:29:49.420Z,1020.95
2017-02-09T13:30:59.286Z,1020.94
2017-02-09T13:32:09.546Z,1020.93
2017-02-09T13:33:19.819Z,1020.91
2017-02-09T13:34:29.672Z,1020.84
2017-02-09T13:35:40.573Z,1020.87
2017-02-09T13:36:50.827Z,1020.88
2017-02-09T13:38:01.475Z,1020.87
2017-02-09T13:39:11.758Z,1020.88
2017-02-09T13:40:22.408Z,1020.81
2017-02-09T13:41:32.514Z,1020.82
2017-02-09T13:42:43.172Z,1020.84
2017-02-09T13:43:53.046Z,1020.77
2017-02-09T13:45:03.302Z,1020.76
2017-02-09T13:46:13.162Z,1020.73
2017-02-09T13:47:23.962Z,1020.76
2017-02-09T13:48:34.608Z,1020.72
2017-02-09T13:49:44.502Z,1020.73
2017-02-09T13:50:54.357Z,1020.75
2017-02-09T13:52:04.604Z,1020.75
2017-02-09T13:53:14.716Z,1020.74
2017-02-09T13:54:24.975Z,1020.75
2017-02-09T13:55:34.845Z,1020.72
2017-02-09T13:56:45.105Z,1020.74
2017-02-09T13:57:55.349Z,1020.7
2017-02-09T13:59:05.757Z,1020.75
2017-02-09T14:00:15.220Z,1020.73
2017-02-09T14:01:24.690Z,1020.68
2017-02-09T14:02:34.960Z,1020.7
2017-02-09T14:03:45.612Z,1020.65
2017-02-09T14:04:56.014Z,1020.62
2017-02-09T14:06:06.302Z,1020.59
2017-02-09T14:07:16.560Z,1020.59
2017-02-09T14:08:26.814Z,1020.63
2017-02-09T14:09:37.056Z,1020.61
2017-02-09T14:10:47.628Z,1020.57
2017-02-09T14:11:57.898Z,1020.6
2017-02-09T14:13:07.770Z,1020.56